Time;durP1;ratioP1;P1;durP2;ratioP2;P2;SDS_P1;SDS_P2;PMS_P1;PMS_P2;Temp;Humidity;BMP_temperature;BMP_pressure;BME280_temperature;BME280_humidity;BME280_pressure;Samples;Min_cycle;Max_cycle;Signal;HPM_P1;HPM_P2
2024/03/04 00:00:48;;;;;;;26.58;16.63;;;9.50;87.60;;;;;;5094571;28;20469;-36
2024/03/04 00:03:15;;;;;;;25.95;17.55;;;9.60;87.70;;;;;;5094326;28;20023;-35
2024/03/04 00:05:40;;;;;;;28.67;18.60;;;9.60;87.70;;;;;;5094539;28;20429;-42
2024/03/04 00:08:06;;;;;;;35.08;22.65;;;9.70;87.80;;;;;;5094283;28;20078;-36
2024/03/04 00:10:32;;;;;;;31.83;20.88;;;9.80;88.40;;;;;;5094046;28;20498;-37
2024/03/04 00:12:57;;;;;;;36.35;21.48;;;9.70;88.10;;;;;;5094345;28;20081;-44
2024/03/04 00:15:23;;;;;;;36.58;22.90;;;9.70;88.00;;;;;;5094294;28;20388;-35
2024/03/04 00:17:52;;;;;;;37.47;22.63;;;9.70;88.30;;;;;;5094258;28;20361;-36
2024/03/04 00:20:18;;;;;;;41.65;24.98;;;9.70;88.40;;;;;;5094239;28;20580;-37
2024/03/04 00:22:47;;;;;;;41.40;23.38;;;9.70;88.60;;;;;;5094255;28;20499;-37
2024/03/04 00:25:16;;;;;;;38.00;23.13;;;9.70;88.60;;;;;;5093935;28;20024;-37
2024/03/04 00:27:48;;;;;;;36.78;22.40;;;9.70;88.70;;;;;;5093812;28;20028;-37
2024/03/04 00:30:14;;;;;;;35.15;21.30;;;9.70;88.60;;;;;;5093966;28;20108;-38
2024/03/04 00:32:39;;;;;;;36.20;23.20;;;9.70;88.70;;;;;;5093685;28;20447;-37
2024/03/04 00:35:13;;;;;;;35.95;21.80;;;9.70;88.70;;;;;;5093472;28;20044;-36
2024/03/04 00:37:39;;;;;;;31.83;21.02;;;9.70;88.60;;;;;;5093490;28;20059;-36
2024/03/04 00:40:08;;;;;;;34.08;21.15;;;9.80;88.60;;;;;;5093698;28;20052;-37
2024/03/04 00:42:34;;;;;;;32.72;20.92;;;9.80;88.50;;;;;;5093479;28;20048;-37
2024/03/04 00:45:00;;;;;;;36.08;20.58;;;9.80;88.50;;;;;;5093755;28;20444;-39
2024/03/04 00:47:26;;;;;;;31.45;20.92;;;9.80;88.50;;;;;;5093770;28;20058;-36
2024/03/04 00:49:51;;;;;;;37.10;22.02;;;9.80;88.50;;;;;;5093394;28;20392;-37
2024/03/04 00:52:17;;;;;;;35.70;20.92;;;9.80;88.50;;;;;;5093778;28;20052;-36
2024/03/04 00:54:43;;;;;;;32.53;21.30;;;9.80;88.40;;;;;;5093261;28;20020;-37
2024/03/04 00:57:09;;;;;;;34.53;19.42;;;9.80;88.60;;;;;;5093267;28;20485;-36
2024/03/04 00:59:37;;;;;;;34.08;21.23;;;9.80;88.50;;;;;;5093146;28;20502;-38
2024/03/04 01:02:06;;;;;;;33.72;22.17;;;9.80;88.60;;;;;;5093364;28;20024;-46
2024/03/04 01:04:33;;;;;;;36.08;20.80;;;9.80;88.80;;;;;;5093148;28;20039;-36
2024/03/04 01:06:58;;;;;;;32.80;20.58;;;9.80;88.70;;;;;;5093166;28;20031;-37
2024/03/04 01:09:24;;;;;;;28.58;18.98;;;9.80;89.00;;;;;;5093034;28;20023;-38
2024/03/04 01:11:49;;;;;;;30.75;19.48;;;9.80;88.80;;;;;;5093274;28;20048;-36
2024/03/04 01:14:15;;;;;;;31.63;19.38;;;9.70;88.80;;;;;;5092875;28;20653;-36
2024/03/04 01:16:43;;;;;;;29.23;18.63;;;9.70;88.90;;;;;;5092909;28;20117;-36
2024/03/04 01:19:09;;;;;;;27.73;17.92;;;9.70;88.80;;;;;;5092934;28;20028;-34
2024/03/04 01:21:35;;;;;;;27.25;17.85;;;9.80;88.90;;;;;;5092972;28;20016;-35
2024/03/04 01:24:01;;;;;;;28.35;17.17;;;9.80;88.80;;;;;;5092770;28;20027;-36
2024/03/04 01:26:27;;;;;;;26.27;16.95;;;9.80;88.70;;;;;;5092886;28;20031;-36
2024/03/04 01:28:52;;;;;;;28.63;18.23;;;9.80;88.70;;;;;;5092975;28;20044;-38
2024/03/04 01:31:18;;;;;;;29.58;18.33;;;9.80;88.70;;;;;;5092284;28;20021;-37
2024/03/04 01:33:50;;;;;;;29.45;19.92;;;9.80;88.90;;;;;;5092638;28;20055;-35
2024/03/04 01:36:19;;;;;;;27.05;19.00;;;9.70;89.20;;;;;;5092656;28;20016;-36
2024/03/04 01:38:44;;;;;;;25.45;16.73;;;9.60;89.00;;;;;;5092811;28;20020;-36
2024/03/04 01:41:10;;;;;;;27.35;16.55;;;9.60;89.30;;;;;;5092130;28;20036;-38
2024/03/04 01:43:36;;;;;;;23.45;15.93;;;9.50;89.30;;;;;;5092307;28;20028;-35
2024/03/04 01:46:02;;;;;;;25.95;16.55;;;9.60;89.30;;;;;;5092238;28;20080;-36
2024/03/04 01:48:30;;;;;;;24.70;16.77;;;9.60;89.50;;;;;;5092325;28;20042;-36
2024/03/04 01:50:57;;;;;;;24.90;15.80;;;9.60;89.50;;;;;;5092179;28;20024;-39
2024/03/04 01:53:24;;;;;;;28.08;18.40;;;9.60;89.50;;;;;;5092601;28;20020;-37
2024/03/04 01:56:04;;;;;;;25.50;17.15;;;9.60;89.50;;;;;;5092385;28;20349;-37
2024/03/04 01:58:33;;;;;;;26.13;17.20;;;9.60;89.60;;;;;;5092090;28;20027;-34
2024/03/04 02:01:02;;;;;;;26.35;17.08;;;9.60;89.70;;;;;;5091582;28;20063;-35
2024/03/04 02:03:31;;;;;;;27.52;18.88;;;9.60;89.60;;;;;;5092178;28;20416;-36
2024/03/04 02:05:58;;;;;;;31.77;19.23;;;9.60;89.60;;;;;;5091770;28;20114;-37
2024/03/04 02:08:24;;;;;;;31.42;19.98;;;9.60;89.70;;;;;;5092315;28;20069;-35
2024/03/04 02:10:51;;;;;;;36.80;22.05;;;9.60;89.60;;;;;;5092087;28;20399;-36
2024/03/04 02:13:18;;;;;;;36.75;21.65;;;9.60;89.80;;;;;;5090863;28;20016;-37
2024/03/04 02:15:44;;;;;;;35.90;22.33;;;9.60;89.70;;;;;;5091825;28;20104;-38
2024/03/04 02:18:10;;;;;;;38.20;23.90;;;9.60;89.80;;;;;;5092036;28;20027;-37
2024/03/04 02:20:41;;;;;;;40.72;23.85;;;9.60;89.80;;;;;;5091309;28;20024;-37
2024/03/04 02:23:09;;;;;;;40.72;24.85;;;9.70;89.90;;;;;;5091859;28;20028;-37
2024/03/04 02:25:35;;;;;;;39.28;24.65;;;9.60;89.90;;;;;;5090557;28;20066;-36
2024/03/04 02:28:04;;;;;;;38.95;25.17;;;9.60;89.90;;;;;;5091760;28;20052;-36
2024/03/04 02:30:32;;;;;;;42.70;24.80;;;9.60;90.00;;;;;;5091752;28;20024;-36
2024/03/04 02:33:03;;;;;;;44.35;26.60;;;9.60;90.00;;;;;;5091662;28;20035;-37
2024/03/04 02:35:29;;;;;;;43.75;25.42;;;9.60;90.00;;;;;;5091428;28;20048;-34
2024/03/04 02:37:56;;;;;;;44.30;27.48;;;9.60;90.00;;;;;;5091732;28;20016;-35
2024/03/04 02:40:21;;;;;;;45.00;28.60;;;9.60;90.00;;;;;;5091415;28;20024;-36
2024/03/04 02:42:47;;;;;;;46.25;26.80;;;9.60;90.00;;;;;;5091244;28;20102;-36
2024/03/04 02:45:13;;;;;;;37.13;24.65;;;9.60;90.10;;;;;;5091677;28;20484;-37
2024/03/04 02:47:38;;;;;;;37.28;23.13;;;9.60;90.20;;;;;;5091284;28;20032;-34
2024/03/04 02:50:07;;;;;;;34.33;20.98;;;9.50;90.10;;;;;;5091318;28;20103;-37
2024/03/04 02:52:33;;;;;;;33.72;21.05;;;9.50;90.10;;;;;;5091709;28;20025;-35
2024/03/04 02:54:59;;;;;;;32.25;20.38;;;9.50;90.20;;;;;;5091669;28;20024;-36
2024/03/04 02:57:25;;;;;;;31.27;19.38;;;9.50;90.20;;;;;;5091565;28;20078;-36
2024/03/04 02:59:51;;;;;;;30.42;18.77;;;9.50;90.20;;;;;;5091456;28;20036;-37
2024/03/04 03:02:17;;;;;;;26.50;16.40;;;9.50;90.20;;;;;;5091299;28;20028;-36
2024/03/04 03:04:43;;;;;;;22.58;14.15;;;9.50;90.20;;;;;;5091318;28;20031;-37
2024/03/04 03:07:08;;;;;;;24.02;14.88;;;9.50;90.20;;;;;;5091247;28;20031;-37
2024/03/04 03:09:34;;;;;;;17.13;11.30;;;9.50;90.20;;;;;;5091120;28;20469;-37
2024/03/04 03:12:00;;;;;;;20.95;11.75;;;9.40;90.20;;;;;;5091116;28;20028;-35
2024/03/04 03:14:26;;;;;;;17.95;11.43;;;9.40;90.20;;;;;;5091541;28;20024;-37
2024/03/04 03:16:52;;;;;;;18.02;10.80;;;9.40;90.20;;;;;;5091101;28;20100;-37
2024/03/04 03:19:25;;;;;;;18.50;10.13;;;9.30;90.30;;;;;;5091154;28;20075;-38
2024/03/04 03:21:55;;;;;;;18.00;9.52;;;9.30;90.30;;;;;;5091135;28;20031;-42
2024/03/04 03:24:23;;;;;;;14.65;8.77;;;9.30;90.40;;;;;;5091036;28;20020;-35
2024/03/04 03:26:49;;;;;;;15.93;8.27;;;9.30;90.30;;;;;;5091373;28;20358;-36
2024/03/04 03:29:15;;;;;;;12.82;7.57;;;9.30;90.20;;;;;;5091199;28;20590;-34
2024/03/04 03:31:41;;;;;;;14.02;7.82;;;9.30;90.20;;;;;;5092897;28;20095;-36
2024/03/04 03:34:07;;;;;;;12.82;8.02;;;9.40;90.20;;;;;;5094919;28;20174;-37
2024/03/04 03:36:35;;;;;;;13.80;7.43;;;9.30;90.10;;;;;;5094925;28;20032;-38
2024/03/04 03:39:04;;;;;;;14.35;6.82;;;9.30;90.10;;;;;;5094813;28;20024;-40
2024/03/04 03:41:29;;;;;;;12.27;6.13;;;9.40;90.10;;;;;;5094885;28;20082;-44
2024/03/04 03:43:55;;;;;;;10.63;6.35;;;9.40;90.10;;;;;;5094984;28;20465;-37
2024/03/04 03:46:21;;;;;;;11.77;5.90;;;9.40;90.00;;;;;;5094642;28;20020;-46
2024/03/04 03:48:47;;;;;;;10.85;6.50;;;9.50;90.00;;;;;;5094727;28;20081;-39
2024/03/04 03:51:12;;;;;;;10.57;6.00;;;9.50;90.00;;;;;;5094652;28;20028;-41
2024/03/04 03:53:38;;;;;;;8.23;5.10;;;9.50;90.00;;;;;;5094912;28;20012;-36
2024/03/04 03:56:04;;;;;;;10.35;5.90;;;9.40;89.80;;;;;;5094585;28;20028;-36
2024/03/04 03:58:30;;;;;;;9.52;5.85;;;9.40;89.80;;;;;;5094395;28;20024;-35
2024/03/04 04:00:56;;;;;;;13.10;6.00;;;9.40;89.90;;;;;;5094106;28;20027;-45
2024/03/04 04:03:21;;;;;;;11.93;5.55;;;9.30;89.80;;;;;;5094371;28;20024;-36
2024/03/04 04:05:50;;;;;;;10.88;5.93;;;9.30;89.90;;;;;;5094386;28;20027;-35
2024/03/04 04:08:15;;;;;;;11.18;5.88;;;9.30;89.80;;;;;;5094324;28;20024;-37
2024/03/04 04:10:41;;;;;;;12.90;5.60;;;9.30;89.70;;;;;;5094092;28;20039;-41
2024/03/04 04:13:07;;;;;;;11.10;6.28;;;9.20;89.80;;;;;;5094086;28;20027;-36
2024/03/04 04:15:32;;;;;;;8.38;4.65;;;9.20;89.80;;;;;;5094315;28;20028;-36
2024/03/04 04:17:58;;;;;;;10.50;5.30;;;9.20;89.90;;;;;;5094066;28;20051;-35
2024/03/04 04:20:25;;;;;;;7.28;5.00;;;9.20;89.70;;;;;;5094259;28;20039;-36
2024/03/04 04:22:50;;;;;;;10.73;5.00;;;9.20;89.70;;;;;;5093759;28;20024;-36
2024/03/04 04:25:17;;;;;;;7.88;4.85;;;9.20;89.70;;;;;;5092562;28;20039;-35
2024/03/04 04:27:43;;;;;;;10.52;5.28;;;9.20;89.70;;;;;;5093932;28;20019;-37
2024/03/04 04:30:09;;;;;;;8.38;4.85;;;9.20;89.60;;;;;;5093544;28;20024;-35
2024/03/04 04:32:35;;;;;;;9.20;5.03;;;9.30;89.70;;;;;;5093888;28;20026;-38
2024/03/04 04:35:03;;;;;;;9.65;5.20;;;9.30;89.60;;;;;;5093570;28;20055;-36
2024/03/04 04:37:29;;;;;;;8.95;5.63;;;9.30;89.30;;;;;;5093378;28;20035;-35
2024/03/04 04:39:55;;;;;;;11.93;5.05;;;9.30;89.40;;;;;;5093685;28;20484;-40
2024/03/04 04:42:22;;;;;;;11.50;5.43;;;9.20;89.30;;;;;;5092904;28;20468;-36
2024/03/04 04:44:48;;;;;;;8.70;4.45;;;9.20;89.30;;;;;;5093832;28;20020;-38
2024/03/04 04:47:14;;;;;;;8.40;4.70;;;9.20;89.50;;;;;;5093521;28;20028;-36
2024/03/04 04:49:39;;;;;;;8.82;4.72;;;9.20;89.40;;;;;;5093443;28;20361;-36
2024/03/04 04:52:05;;;;;;;8.73;4.90;;;9.20;89.30;;;;;;5093660;28;20024;-33
2024/03/04 04:54:31;;;;;;;11.13;5.82;;;9.30;89.30;;;;;;5093271;28;20426;-35
2024/03/04 04:56:56;;;;;;;9.85;5.15;;;9.20;89.10;;;;;;5093503;28;20016;-37
2024/03/04 04:59:22;;;;;;;8.50;4.72;;;9.20;89.10;;;;;;5093482;28;20012;-36
2024/03/04 05:01:48;;;;;;;9.23;4.68;;;9.30;89.20;;;;;;5093041;28;20469;-37
2024/03/04 05:04:14;;;;;;;8.45;4.53;;;9.30;89.20;;;;;;5093400;28;20064;-37
2024/03/04 05:06:39;;;;;;;8.90;4.70;;;9.40;89.10;;;;;;5093148;28;20077;-36
2024/03/04 05:09:06;;;;;;;7.82;4.60;;;9.40;89.00;;;;;;5093435;28;20091;-38
2024/03/04 05:11:34;;;;;;;8.68;5.07;;;9.40;89.00;;;;;;5091565;28;20028;-35
2024/03/04 05:14:00;;;;;;;8.93;4.70;;;9.40;88.90;;;;;;5092975;28;20078;-36
2024/03/04 05:16:26;;;;;;;11.73;4.95;;;9.40;88.90;;;;;;5093027;28;20028;-35
2024/03/04 05:18:51;;;;;;;8.35;4.40;;;9.50;88.80;;;;;;5092755;28;20047;-37
2024/03/04 05:21:17;;;;;;;8.65;4.47;;;9.50;88.70;;;;;;5093129;28;20044;-37
2024/03/04 05:23:43;;;;;;;8.23;4.97;;;9.50;88.70;;;;;;5092893;28;20024;-37
2024/03/04 05:26:08;;;;;;;9.32;5.25;;;9.50;88.60;;;;;;5092745;28;20536;-36
2024/03/04 05:28:34;;;;;;;8.65;5.28;;;9.50;88.50;;;;;;5092773;28;20091;-39
2024/03/04 05:31:00;;;;;;;9.23;4.50;;;9.50;88.50;;;;;;5092498;28;20031;-35
2024/03/04 05:33:26;;;;;;;10.57;5.50;;;9.50;88.50;;;;;;5092728;28;20020;-35
2024/03/04 05:35:51;;;;;;;8.85;5.25;;;9.40;88.50;;;;;;5092356;28;20101;-36
2024/03/04 05:38:17;;;;;;;7.10;4.63;;;9.40;88.60;;;;;;5092398;28;20293;-37
2024/03/04 05:40:43;;;;;;;8.50;4.60;;;9.40;88.60;;;;;;5092410;28;20024;-37
2024/03/04 05:43:09;;;;;;;9.00;5.50;;;9.40;88.60;;;;;;5092182;28;20027;-37
2024/03/04 05:45:34;;;;;;;8.77;4.82;;;9.40;88.60;;;;;;5092731;28;20078;-36
2024/03/04 05:48:00;;;;;;;9.45;4.68;;;9.40;88.50;;;;;;5092204;28;20028;-37
2024/03/04 05:50:26;;;;;;;9.45;5.00;;;9.40;88.50;;;;;;5092190;28;20110;-34
2024/03/04 05:52:52;;;;;;;8.98;4.60;;;9.40;88.50;;;;;;5092455;28;20032;-36
2024/03/04 05:55:18;;;;;;;10.25;4.80;;;9.40;88.60;;;;;;5091787;28;20439;-36
2024/03/04 05:57:45;;;;;;;10.85;4.38;;;9.40;88.50;;;;;;5092413;28;20020;-38
2024/03/04 06:00:12;;;;;;;8.13;4.30;;;9.40;88.50;;;;;;5092230;28;20031;-37
2024/03/04 06:02:44;;;;;;;9.35;4.78;;;9.40;88.40;;;;;;5091917;28;20036;-38
2024/03/04 06:05:13;;;;;;;7.40;3.83;;;9.50;88.50;;;;;;5092292;28;20024;-37
2024/03/04 06:07:40;;;;;;;5.82;3.53;;;9.50;88.40;;;;;;5092116;28;20035;-35
2024/03/04 06:10:07;;;;;;;8.20;3.83;;;9.50;88.30;;;;;;5091835;28;20035;-38
2024/03/04 06:12:32;;;;;;;8.18;3.17;;;9.50;88.30;;;;;;5092161;28;20047;-36
2024/03/04 06:14:58;;;;;;;5.93;3.13;;;9.40;88.10;;;;;;5092034;28;20028;-38
2024/03/04 06:17:26;;;;;;;8.70;3.80;;;9.40;88.20;;;;;;5092131;28;20480;-38
2024/03/04 06:19:52;;;;;;;8.85;3.90;;;9.40;88.20;;;;;;5091811;28;20044;-35
2024/03/04 06:22:18;;;;;;;7.95;3.20;;;9.30;88.20;;;;;;5091811;28;20052;-36
2024/03/04 06:24:43;;;;;;;5.68;3.25;;;9.30;88.30;;;;;;5091728;28;20024;-37
2024/03/04 06:27:09;;;;;;;5.90;2.78;;;9.30;88.30;;;;;;5091535;28;20067;-35
2024/03/04 06:29:35;;;;;;;6.38;3.03;;;9.20;88.30;;;;;;5091529;28;20381;-37
2024/03/04 06:32:04;;;;;;;6.75;2.95;;;9.20;88.40;;;;;;5091680;28;20026;-36
2024/03/04 06:34:31;;;;;;;8.10;3.10;;;9.30;88.30;;;;;;5091330;28;20048;-36
2024/03/04 06:36:57;;;;;;;5.63;3.40;;;9.20;88.30;;;;;;5091861;28;20460;-39
2024/03/04 06:39:23;;;;;;;7.93;3.15;;;9.30;88.40;;;;;;5091823;28;20022;-38
2024/03/04 06:41:49;;;;;;;5.97;2.85;;;9.30;88.40;;;;;;5091708;28;20400;-37
2024/03/04 06:44:16;;;;;;;9.27;3.70;;;9.30;88.20;;;;;;5091530;28;20035;-38
2024/03/04 06:46:41;;;;;;;5.97;2.75;;;9.40;88.20;;;;;;5091656;28;20058;-39
2024/03/04 06:49:07;;;;;;;6.13;2.90;;;9.40;88.10;;;;;;5090304;28;20024;-36
2024/03/04 06:51:35;;;;;;;5.35;2.60;;;9.40;88.10;;;;;;5091539;28;20091;-36
2024/03/04 06:54:05;;;;;;;4.45;2.40;;;9.40;88.10;;;;;;5091721;28;20024;-41
2024/03/04 06:56:30;;;;;;;4.60;2.45;;;9.50;88.10;;;;;;5091688;28;20048;-37
2024/03/04 06:59:05;;;;;;;6.25;2.80;;;9.50;88.60;;;;;;5091446;28;20054;-36
2024/03/04 07:01:31;;;;;;;8.20;2.40;;;9.50;87.70;;;;;;5091309;28;20020;-34
2024/03/04 07:03:56;;;;;;;5.35;2.53;;;9.50;87.70;;;;;;5091509;28;20093;-37
2024/03/04 07:06:23;;;;;;;5.10;2.53;;;9.50;87.70;;;;;;5094386;28;20115;-36
2024/03/04 07:08:49;;;;;;;4.97;2.53;;;9.50;87.50;;;;;;5094541;28;20031;-36
2024/03/04 07:11:18;;;;;;;5.43;2.45;;;9.40;87.50;;;;;;5095064;28;20020;-36
2024/03/04 07:13:44;;;;;;;6.70;2.60;;;9.40;87.40;;;;;;5094367;28;20488;-37
2024/03/04 07:16:15;;;;;;;4.18;2.55;;;9.40;87.40;;;;;;5094704;28;20252;-37
2024/03/04 07:18:41;;;;;;;6.65;2.40;;;9.40;87.40;;;;;;5095267;28;20043;-37
2024/03/04 07:21:07;;;;;;;3.80;2.10;;;9.50;87.30;;;;;;5095212;28;20384;-37
2024/03/04 07:23:32;;;;;;;6.03;2.42;;;9.40;87.10;;;;;;5094870;28;20020;-37
2024/03/04 07:25:58;;;;;;;3.38;2.20;;;9.50;87.20;;;;;;5094813;28;20024;-37
2024/03/04 07:28:24;;;;;;;4.13;2.60;;;9.50;87.10;;;;;;5095336;28;20020;-36
2024/03/04 07:30:49;;;;;;;4.38;2.70;;;9.50;86.90;;;;;;5094562;28;20031;-36
2024/03/04 07:33:15;;;;;;;4.10;2.60;;;9.50;86.80;;;;;;5094846;28;20028;-37
2024/03/04 07:35:41;;;;;;;6.45;2.53;;;9.50;86.70;;;;;;5094860;28;20567;-37
2024/03/04 07:38:07;;;;;;;3.92;2.33;;;9.60;86.60;;;;;;5094759;28;20054;-36
2024/03/04 07:40:33;;;;;;;3.20;2.40;;;9.60;86.40;;;;;;5094644;28;20468;-37
2024/03/04 07:43:01;;;;;;;4.55;2.63;;;9.60;86.40;;;;;;5095009;28;20052;-37
2024/03/04 07:45:27;;;;;;;4.72;2.47;;;9.60;86.00;;;;;;5094757;28;20024;-32
2024/03/04 07:47:52;;;;;;;4.20;2.53;;;9.60;86.00;;;;;;5094139;28;20047;-31
2024/03/04 07:50:18;;;;;;;4.18;2.58;;;9.60;85.90;;;;;;5094679;28;20107;-35
2024/03/04 07:52:44;;;;;;;4.47;3.00;;;9.60;85.90;;;;;;5094931;28;20020;-31
2024/03/04 07:55:11;;;;;;;4.72;2.50;;;9.70;85.70;;;;;;5094757;28;20074;-32
2024/03/04 07:57:39;;;;;;;4.88;2.58;;;9.70;85.70;;;;;;5093484;28;20036;-32
2024/03/04 08:00:06;;;;;;;5.32;2.90;;;9.70;85.50;;;;;;5094984;28;20046;-31
2024/03/04 08:02:31;;;;;;;5.78;2.55;;;9.70;85.30;;;;;;5094297;28;20111;-31
2024/03/04 08:04:57;;;;;;;4.45;3.00;;;9.70;85.50;;;;;;5094655;28;20103;-33
2024/03/04 08:07:23;;;;;;;5.65;2.72;;;9.70;85.30;;;;;;5093244;28;20028;-31
2024/03/04 08:09:48;;;;;;;4.88;3.15;;;9.70;85.20;;;;;;5094434;28;20032;-33
2024/03/04 08:12:14;;;;;;;6.03;2.85;;;9.80;85.30;;;;;;5094954;28;20121;-32
2024/03/04 08:14:40;;;;;;;4.70;2.90;;;9.80;85.10;;;;;;5094779;28;20020;-31
2024/03/04 08:17:06;;;;;;;3.95;2.95;;;9.80;85.00;;;;;;5093864;28;20035;-32
2024/03/04 08:19:31;;;;;;;5.60;3.17;;;9.80;84.50;;;;;;5094440;28;20016;-30
2024/03/04 08:21:57;;;;;;;4.70;2.78;;;9.80;84.70;;;;;;5094958;28;20027;-30
2024/03/04 08:24:22;;;;;;;5.55;3.22;;;9.70;84.70;;;;;;5094126;28;20051;-32
2024/03/04 08:26:48;;;;;;;5.30;3.00;;;9.70;84.70;;;;;;5094312;28;20059;-29
2024/03/04 08:29:14;;;;;;;5.60;3.03;;;9.70;84.80;;;;;;5094277;28;20054;-31
2024/03/04 08:31:39;;;;;;;4.85;2.80;;;9.80;84.80;;;;;;5094096;28;20028;-30
2024/03/04 08:34:05;;;;;;;7.22;3.30;;;9.90;84.70;;;;;;5094124;28;20060;-32
2024/03/04 08:36:31;;;;;;;5.22;2.72;;;10.00;84.50;;;;;;5094087;28;20081;-33
2024/03/04 08:38:57;;;;;;;6.35;3.25;;;10.00;84.20;;;;;;5093945;28;20085;-36
2024/03/04 08:41:24;;;;;;;5.22;2.95;;;10.00;83.80;;;;;;5094352;28;20040;-31
2024/03/04 08:43:50;;;;;;;5.63;3.53;;;10.00;83.70;;;;;;5094012;28;20484;-34
2024/03/04 08:46:16;;;;;;;5.65;3.00;;;10.00;83.60;;;;;;5092852;28;20496;-31
2024/03/04 08:48:42;;;;;;;4.03;2.67;;;10.00;83.80;;;;;;5094034;28;20031;-35
2024/03/04 08:51:08;;;;;;;5.88;3.08;;;10.00;84.00;;;;;;5093908;28;20492;-33
2024/03/04 08:53:34;;;;;;;5.00;2.72;;;10.10;83.50;;;;;;5094100;28;20065;-33
2024/03/04 08:56:00;;;;;;;5.68;2.88;;;10.10;83.60;;;;;;5093861;28;20069;-39
2024/03/04 08:58:26;;;;;;;6.38;2.75;;;10.20;83.10;;;;;;5093776;28;20047;-35
2024/03/04 09:00:51;;;;;;;4.32;2.40;;;10.20;82.80;;;;;;5093395;28;20674;-37
2024/03/04 09:03:17;;;;;;;3.97;2.35;;;10.20;82.40;;;;;;5093694;28;20380;-31
2024/03/04 09:05:46;;;;;;;4.30;2.33;;;10.20;82.60;;;;;;5093390;28;20032;-31
2024/03/04 09:08:14;;;;;;;3.47;2.38;;;10.20;82.70;;;;;;5093492;28;20115;-31
2024/03/04 09:10:40;;;;;;;5.63;2.75;;;10.30;82.70;;;;;;5093379;28;20031;-31
2024/03/04 09:13:06;;;;;;;4.13;2.20;;;10.30;82.40;;;;;;5093713;28;20028;-34
2024/03/04 09:15:31;;;;;;;6.85;2.60;;;10.50;82.30;;;;;;5093345;28;20032;-32
2024/03/04 09:17:57;;;;;;;4.63;2.30;;;10.60;81.90;;;;;;5093646;28;20027;-33
2024/03/04 09:20:22;;;;;;;3.25;2.20;;;10.60;81.30;;;;;;5093047;28;20032;-32
2024/03/04 09:22:48;;;;;;;4.00;2.35;;;10.60;81.30;;;;;;5093598;28;20035;-34
2024/03/04 09:25:14;;;;;;;3.95;2.00;;;10.70;81.40;;;;;;5093058;28;20099;-34
2024/03/04 09:27:43;;;;;;;5.78;2.78;;;10.70;81.40;;;;;;5093095;28;20345;-35
2024/03/04 09:30:09;;;;;;;7.00;2.50;;;10.80;81.40;;;;;;5092051;28;20115;-37
2024/03/04 09:32:35;;;;;;;3.17;2.20;;;10.90;81.20;;;;;;5093306;28;20437;-30
2024/03/04 09:35:01;;;;;;;4.40;2.17;;;11.00;81.40;;;;;;5092891;28;20111;-41
2024/03/04 09:37:27;;;;;;;3.80;2.13;;;11.00;80.20;;;;;;5092959;28;20089;-31
2024/03/04 09:39:52;;;;;;;3.10;1.80;;;11.00;80.00;;;;;;5092815;28;20024;-32
2024/03/04 09:42:18;;;;;;;3.75;1.85;;;11.00;80.10;;;;;;5092804;28;20063;-32
2024/03/04 09:44:45;;;;;;;3.28;1.90;;;11.00;79.80;;;;;;5092926;28;20484;-31
2024/03/04 09:47:12;;;;;;;4.60;1.80;;;11.00;79.80;;;;;;5092836;28;20091;-35
2024/03/04 09:49:39;;;;;;;3.20;1.98;;;11.10;79.60;;;;;;5092729;28;20028;-35
2024/03/04 09:52:08;;;;;;;3.42;2.00;;;11.10;79.50;;;;;;5092962;28;20027;-30
2024/03/04 09:54:36;;;;;;;3.53;2.10;;;11.10;79.50;;;;;;5092466;28;20388;-31
2024/03/04 09:57:03;;;;;;;3.45;2.00;;;11.00;79.00;;;;;;5092805;28;20024;-32
2024/03/04 09:59:31;;;;;;;4.10;1.80;;;11.00;79.10;;;;;;5092666;28;20148;-32
2024/03/04 10:01:58;;;;;;;2.95;1.90;;;10.90;79.10;;;;;;5092745;28;20392;-33
2024/03/04 10:04:25;;;;;;;4.45;2.22;;;10.90;79.20;;;;;;5092250;28;20024;-32
2024/03/04 10:06:51;;;;;;;4.57;1.92;;;10.80;79.10;;;;;;5092505;28;20513;-34
2024/03/04 10:09:17;;;;;;;4.38;1.77;;;10.80;79.40;;;;;;5092508;28;20027;-34
2024/03/04 10:11:44;;;;;;;3.65;1.75;;;10.70;79.30;;;;;;5092296;28;20020;-32
2024/03/04 10:14:09;;;;;;;2.95;1.98;;;10.70;79.40;;;;;;5092124;28;20047;-30
2024/03/04 10:16:36;;;;;;;2.35;1.60;;;10.80;79.50;;;;;;5092191;28;20059;-31
2024/03/04 10:19:04;;;;;;;3.40;1.83;;;10.80;79.30;;;;;;5092086;28;20016;-32
2024/03/04 10:21:31;;;;;;;4.10;1.60;;;10.80;79.20;;;;;;5092197;28;20082;-39
2024/03/04 10:23:58;;;;;;;2.63;1.65;;;10.90;79.30;;;;;;5092416;28;20436;-31
2024/03/04 10:26:24;;;;;;;4.40;2.20;;;11.00;79.20;;;;;;5092237;28;20040;-31
2024/03/04 10:28:51;;;;;;;2.78;1.75;;;11.00;78.80;;;;;;5092019;28;20115;-31
2024/03/04 10:31:18;;;;;;;4.32;2.13;;;11.10;78.70;;;;;;5092277;28;20432;-33
2024/03/04 10:33:44;;;;;;;5.25;2.03;;;11.20;78.70;;;;;;5092087;28;20028;-31
2024/03/04 10:36:17;;;;;;;6.18;1.83;;;11.20;78.40;;;;;;5092335;28;20388;-33
2024/03/04 10:38:45;;;;;;;3.63;1.98;;;11.30;77.90;;;;;;5092263;28;20495;-33
2024/03/04 10:41:18;;;;;;;4.05;1.75;;;11.30;78.20;;;;;;5091326;28;20111;-32
2024/03/04 10:43:44;;;;;;;3.05;1.77;;;11.40;78.10;;;;;;5092345;28;20388;-30
2024/03/04 10:46:10;;;;;;;3.85;1.90;;;11.40;77.80;;;;;;5091809;28;20048;-30
2024/03/04 10:48:37;;;;;;;3.30;1.70;;;11.50;78.00;;;;;;5091678;28;20032;-30
2024/03/04 10:51:03;;;;;;;3.65;2.10;;;11.60;77.30;;;;;;5091576;28;20036;-33
2024/03/04 10:53:29;;;;;;;3.63;1.55;;;11.60;76.90;;;;;;5091763;28;20031;-31
2024/03/04 10:56:04;;;;;;;5.78;1.80;;;11.50;77.00;;;;;;5091726;28;20381;-32
2024/03/04 10:58:31;;;;;;;2.55;1.50;;;11.50;77.10;;;;;;5091920;28;20473;-30
2024/03/04 11:00:59;;;;;;;4.10;1.73;;;11.50;77.20;;;;;;5091825;28;20039;-31
2024/03/04 11:03:29;;;;;;;4.82;1.55;;;11.60;77.20;;;;;;5091482;28;20040;-31
2024/03/04 11:05:56;;;;;;;4.88;1.50;;;11.50;76.90;;;;;;5091587;28;20052;-37
2024/03/04 11:08:34;;;;;;;3.60;1.50;;;11.50;77.00;;;;;;5091590;28;20074;-34
2024/03/04 11:11:12;;;;;;;3.13;1.50;;;11.50;77.00;;;;;;5091692;28;20024;-33
2024/03/04 11:13:51;;;;;;;1.50;1.10;;;11.60;77.00;;;;;;5091620;28;20539;-31
2024/03/04 11:16:28;;;;;;;3.65;1.42;;;11.60;76.70;;;;;;5091762;28;20040;-32
2024/03/04 11:19:11;;;;;;;4.88;1.10;;;11.60;76.50;;;;;;5091352;28;20036;-33
2024/03/04 11:21:42;;;;;;;2.95;1.17;;;11.60;76.40;;;;;;5091658;28;20031;-32
2024/03/04 11:24:09;;;;;;;2.50;1.10;;;11.70;76.10;;;;;;5091691;28;20640;-33
2024/03/04 11:26:37;;;;;;;1.35;0.82;;;11.60;76.00;;;;;;5091294;28;20028;-31
2024/03/04 11:29:04;;;;;;;1.85;0.98;;;11.70;76.40;;;;;;5091697;28;20044;-36
2024/03/04 11:31:33;;;;;;;3.30;1.27;;;11.80;76.20;;;;;;5091248;28;20028;-42
2024/03/04 11:34:01;;;;;;;4.13;1.05;;;11.90;75.90;;;;;;5091313;28;20068;-35
2024/03/04 11:36:27;;;;;;;2.00;0.90;;;11.90;75.20;;;;;;5090972;28;20059;-35
2024/03/04 11:38:54;;;;;;;3.55;1.13;;;11.90;74.90;;;;;;5091594;28;20029;-37
2024/03/04 11:41:40;;;;;;;4.07;1.20;;;11.90;75.00;;;;;;5091197;28;20115;-39
2024/03/04 11:44:06;;;;;;;1.80;0.98;;;12.00;75.40;;;;;;5091197;28;20028;-33
2024/03/04 11:46:38;;;;;;;2.17;0.85;;;12.10;75.40;;;;;;5091249;28;20377;-34
2024/03/04 11:49:26;;;;;;;1.50;0.60;;;12.20;74.70;;;;;;5091520;28;20477;-37
2024/03/04 11:52:04;;;;;;;2.03;0.80;;;12.30;74.50;;;;;;5091464;28;20107;-39
2024/03/04 11:54:33;;;;;;;1.80;0.60;;;12.30;73.60;;;;;;5094667;28;20052;-31
2024/03/04 11:57:00;;;;;;;1.48;0.70;;;12.30;74.10;;;;;;5095087;28;20028;-38
2024/03/04 11:59:27;;;;;;;2.22;0.70;;;12.40;74.70;;;;;;5094698;28;20035;-37
2024/03/04 12:01:53;;;;;;;1.10;0.40;;;12.40;74.00;;;;;;5094605;28;20032;-35
2024/03/04 12:04:22;;;;;;;1.08;0.60;;;12.50;73.50;;;;;;5094540;28;20556;-33
2024/03/04 12:06:48;;;;;;;1.42;0.60;;;12.50;72.50;;;;;;5094719;28;20047;-35
2024/03/04 12:09:18;;;;;;;2.28;0.60;;;12.50;72.50;;;;;;5094497;28;20028;-37
2024/03/04 12:11:46;;;;;;;2.03;0.75;;;12.40;72.80;;;;;;5094503;28;20480;-35
2024/03/04 12:14:12;;;;;;;0.70;0.50;;;12.50;73.00;;;;;;5094216;28;20031;-33
2024/03/04 12:16:38;;;;;;;1.65;0.85;;;12.50;73.30;;;;;;5094628;28;20500;-31
2024/03/04 12:19:05;;;;;;;1.42;0.55;;;12.60;72.90;;;;;;5094220;28;20047;-36
2024/03/04 12:21:31;;;;;;;0.80;0.50;;;12.60;72.00;;;;;;5094348;28;20111;-36
2024/03/04 12:23:57;;;;;;;1.52;0.50;;;12.60;72.20;;;;;;5094524;28;20583;-36
2024/03/04 12:26:22;;;;;;;0.82;0.40;;;12.70;72.40;;;;;;5094574;28;20161;-34
2024/03/04 12:29:06;;;;;;;1.45;0.52;;;12.70;71.80;;;;;;5094414;28;20484;-36
2024/03/04 12:31:32;;;;;;;1.80;0.65;;;12.80;71.80;;;;;;5093955;28;20365;-41
2024/03/04 12:33:58;;;;;;;0.75;0.40;;;12.80;71.50;;;;;;5093907;28;20036;-38
2024/03/04 12:36:27;;;;;;;3.05;0.47;;;12.80;71.20;;;;;;5094052;28;20093;-37
2024/03/04 12:38:56;;;;;;;1.05;0.50;;;12.90;70.80;;;;;;5092398;28;20062;-38
2024/03/04 12:41:25;;;;;;;1.08;0.60;;;12.90;70.70;;;;;;5093891;28;20031;-43
2024/03/04 12:43:55;;;;;;;0.75;0.60;;;12.90;70.70;;;;;;5093890;28;20035;-46
2024/03/04 12:46:21;;;;;;;2.63;0.50;;;13.00;70.60;;;;;;5094144;28;20028;-39